This is the latest recevied weather packets stored in our database for station/object IU3IOK-3. If no packets are shown the sender has not sent any weather packets the latest 10 day(s).
| Time | Temp. | Humidity | Pressure | Rain* | Wind** | Luminosity | Snow |
|---|---|---|---|---|---|---|---|
| 1777710401 | 22.22° C | 36% | 1024.8 hPa | - | - | - | - |
| 1777709501 | 22.22° C | 37% | 1025 hPa | - | - | - | - |
| 1777708601 | 21.67° C | 37% | 1025.1 hPa | - | - | - | - |
| 1777707701 | 21.67° C | 36% | 1025.2 hPa | - | - | - | - |
| 1777706801 | 21.11° C | 38% | 1025.3 hPa | - | - | - | - |
| 1777705901 | 21.11° C | 37% | 1025.4 hPa | - | - | - | - |
| 1777705001 | 20.56° C | 38% | 1025.5 hPa | - | - | - | - |
| 1777704101 | 21.11° C | 38% | 1025.5 hPa | - | - | - | - |
| 1777703201 | 21.11° C | 39% | 1025.5 hPa | - | - | - | - |
| 1777702301 | 20° C | 41% | 1025.5 hPa | - | - | - | - |
| 1777701401 | 18.89° C | 43% | 1025.7 hPa | - | - | - | - |
| 1777700501 | 18.33° C | 45% | 1025.6 hPa | - | - | - | - |
| 1777699601 | 16.67° C | 48% | 1025.6 hPa | - | - | - | - |
| 1777698701 | 15° C | 51% | 1025.7 hPa | - | - | - | - |
| 1777697801 | 13.33° C | 54% | 1025.6 hPa | - | - | - | - |
| 1777696901 | 12.78° C | 55% | 1025.6 hPa | - | - | - | - |
| 1777696001 | 12.78° C | 53% | 1025.6 hPa | - | - | - | - |
| 1777695101 | 12.78° C | 52% | 1025.5 hPa | - | - | - | - |
| 1777694201 | 12.78° C | 52% | 1025.6 hPa | - | - | - | - |
| 1777693301 | 12.22° C | 51% | 1025.6 hPa | - | - | - | - |
| 1777692401 | 12.22° C | 51% | 1025.6 hPa | - | - | - | - |
| 1777691501 | 12.78° C | 50% | 1025.6 hPa | - | - | - | - |
| 1777690610 | 12.78° C | 51% | 1025.7 hPa | - | - | - | - |
| 1777689701 | 12.78° C | 51% | 1025.8 hPa | - | - | - | - |
| 1777688802 | 12.78° C | 49% | 1025.8 hPa | - | - | - | - |
* Rain since midnight (hover to see other rain measurements)
** Current wind speed in m/s (hover to see current wind gust speed)